Latest Weather Observations for Sheffield

IDT60801

Issued at 9:31 am EDT Thursday 5 March 2015 (issued every 30 minutes, with the page automatically refreshed every 10 minutes)

About weather observations | Map of weather stations | Latest weather observations for TAS | Other Formats
Station Details ID: 091291 Name: SHEFFIELD SCHOOL FARM Lat: -41.39 Lon: 146.32 Height: 294.2 m
Data from the previous 72 hours. | See also: Recent months at Sheffield
Date/Time
EDT
Temp
°C
App
Temp
°C
Dew
Point
Rel
Hum
%
Delta-T
°C
Wind Press
QNH
hPa
Press
MSL
hPa
Rain
since 9 am
mm
Dir
 
Spd
km/h
Gust
km/h
Spd
kts
Gust
kts
05/09:30am 9.2 0.1 -0.7 50 4.0 SW 37 57 20 31 1007.2 1006.8 0.0
05/09:06am 8.6 1.5 1.5 61 3.0 WSW 28 48 15 26 1006.8 1006.4 0.0
05/09:00am 8.4 0.9 1.3 61 3.0 SW 30 46 16 25 1006.8 1006.4 3.6
05/08:44am 8.1 0.6 1.3 62 2.8 SW 30 69 16 37 1006.3 1005.9 3.6
05/08:30am 7.2 -0.2 2.1 70 2.1 WSW 30 43 16 23 1006.0 1005.5 3.6
05/08:00am 6.6 0.0 1.9 72 2.0 WSW 26 44 14 24 1005.6 1005.1 3.6
05/07:30am 6.3 0.7 1.4 71 2.0 WSW 20 32 11 17 1004.7 1004.3 3.6
05/07:00am 5.8 0.3 2.1 77 1.5 WSW 20 33 11 18 1004.1 1003.7 3.6
05/06:30am 6.2 0.8 2.3 76 1.6 WSW 20 30 11 16 1003.4 1003.0 3.6
05/06:00am 6.1 -0.1 2.4 77 1.6 WSW 24 37 13 20 1002.5 1002.0 3.6
05/05:42am 6.8 -2.2 2.3 73 1.9 WSW 39 67 21 36 1001.9 1001.4 3.4
05/05:36am 7.0 0.1 2.3 72 2.0 WSW 28 46 15 25 1002.0 1001.5 3.2
05/05:30am 6.5 0.0 2.6 76 1.6 WSW 26 39 14 21 1001.6 1001.1 3.2
05/05:22am 6.5 -0.4 2.6 76 1.6 WSW 28 46 15 25 1001.1 1000.7 3.2
05/05:00am 6.4 -0.9 2.5 76 1.6 WSW 30 39 16 21 1000.3 999.9 3.2
05/04:30am 6.3 -0.9 3.1 80 1.4 WSW 30 54 16 29 999.5 999.0 3.2
05/04:07am 6.6 -1.2 3.0 78 1.5 WSW 33 54 18 29 999.9 999.4 2.6
05/04:00am 7.0 -0.3 2.7 74 1.8 WSW 30 44 16 24 999.7 999.2 2.0
05/03:44am 7.0 -0.1 3.4 78 1.5 WSW 30 50 16 27 999.0 998.5 1.8
05/03:30am 7.3 0.3 4.1 80 1.4 WSW 30 44 16 24 999.6 999.1 1.8
05/03:00am 8.2 1.9 4.0 75 1.9 W 26 43 14 23 999.4 998.9 1.0
05/02:30am 8.2 2.7 4.0 75 1.9 WSW 22 35 12 19 998.8 998.3 1.0
05/02:00am 8.7 4.5 5.6 81 1.4 W 17 28 9 15 999.0 998.5 1.0
05/01:30am 9.4 4.8 6.3 81 1.5 W 20 35 11 19 998.6 998.1 1.0
05/01:00am 10.5 5.3 5.5 71 2.3 W 22 32 12 17 998.3 997.8 0.2
05/12:30am 11.0 7.1 6.9 76 2.0 W 17 26 9 14 998.8 998.3 0.2
05/12:00am 11.7 7.3 7.4 75 2.1 WNW 20 32 11 17 998.8 998.3 0.2
 
Date/Time
EDT
Temp
°C
App
Temp
°C
Dew
Point
Rel
Hum
%
Delta-T
°C
Wind Press
QNH
hPa
Press
MSL
hPa
Rain
since 9 am
mm
Dir
 
Spd
km/h
Gust
km/h
Spd
kts
Gust
kts
04/11:30pm 11.6 7.5 8.8 83 1.4 W 20 37 11 20 999.4 998.9 0.2
04/11:00pm 12.2 7.2 8.1 76 2.1 WNW 24 39 13 21 999.8 999.3 0.2
04/10:30pm 12.4 6.2 7.9 74 2.2 WNW 30 39 16 21 1000.0 999.5 0.2
04/10:00pm 12.4 6.7 8.3 76 2.1 WNW 28 43 15 23 1000.7 1000.3 0.2
04/09:30pm 11.7 8.4 9.6 87 1.1 WNW 17 28 9 15 1000.9 1000.5 0.2
04/09:00pm 11.6 8.5 10.2 91 0.7 NW 17 20 9 11 1001.7 1001.2 0.2
04/08:30pm 12.5 7.8 9.1 80 1.7 NW 24 33 13 18 1001.7 1001.2 0.0
04/08:00pm 13.5 8.5 7.9 69 2.8 WNW 24 39 13 21 1001.8 1001.3 0.0
04/07:30pm 13.8 7.1 7.3 65 3.2 WNW 32 44 17 24 1002.1 1001.6 0.0
04/07:18pm 14.1 7.8 7.4 64 3.4 WNW 30 59 16 32 1002.2 1001.7 0.0
04/07:00pm 14.4 8.3 8.1 66 3.2 WNW 30 44 16 24 1002.3 1001.8 0.0
04/06:30pm 14.4 8.2 10.0 75 2.3 WNW 33 52 18 28 1002.9 1002.4 0.0
04/06:17pm 15.0 8.7 9.8 71 2.7 WNW 33 52 18 28 1002.7 1002.2 0.0
04/06:00pm 15.8 9.4 9.2 65 3.5 WNW 33 48 18 26 1002.6 1002.1 0.0
04/05:35pm 16.1 9.8 9.1 63 3.7 WNW 32 50 17 27 1002.9 1002.4 0.0
04/05:30pm 16.1 8.8 8.8 62 3.8 WNW 37 54 20 29 1002.8 1002.3 0.0
04/05:16pm 16.3 9.8 9.0 62 3.8 WNW 33 56 18 30 1003.2 1002.8 0.0
04/05:00pm 16.2 10.4 9.6 65 3.5 W 30 41 16 22 1003.5 1003.1 0.0
04/04:30pm 17.1 12.3 10.2 64 3.7 WNW 26 37 14 20 1003.7 1003.3 0.0
04/04:00pm 17.6 10.1 9.5 59 4.3 WNW 39 50 21 27 1003.8 1003.4 0.0
04/03:50pm 18.8 13.2 10.1 57 4.7 WNW 30 54 16 29 1003.9 1003.5 0.0
04/03:30pm 17.5 11.2 8.9 57 4.5 WNW 32 48 17 26 1004.1 1003.7 0.0
04/03:05pm 18.0 12.2 9.4 57 4.6 WNW 30 50 16 27 1004.6 1004.2 0.0
04/03:00pm 18.2 11.8 9.3 56 4.8 WNW 33 50 18 27 1004.6 1004.2 0.0
04/02:47pm 19.1 12.0 9.6 54 5.1 WNW 37 57 20 31 1004.6 1004.2 0.0
04/02:30pm 18.2 11.1 9.5 57 4.6 WNW 37 52 20 28 1005.0 1004.5 0.0
04/02:19pm 18.6 12.4 9.4 55 4.9 WNW 32 50 17 27 1005.0 1004.5 0.0
04/02:00pm 17.8 12.1 9.9 60 4.3 WNW 30 43 16 23 1005.1 1004.6 0.0
04/01:30pm 17.8 12.1 9.9 60 4.2 WNW 30 44 16 24 1005.5 1005.0 0.0
04/01:07pm 18.5 12.2 9.8 57 4.7 WNW 33 52 18 28 1005.8 1005.3 0.0
04/01:00pm 17.6 10.5 9.5 59 4.3 WNW 37 52 20 28 1005.8 1005.3 0.0
04/12:32pm 18.1 12.3 9.5 57 4.6 WNW 30 56 16 30 1006.3 1005.9 0.0
04/12:30pm 17.5 12.1 9.4 59 4.3 WNW 28 44 15 24 1006.4 1006.0 0.0
04/12:00pm 16.9 12.2 10.5 66 3.5 NW 26 35 14 19 1007.2 1006.8 0.0
04/11:30am 14.8 10.0 10.2 74 2.4 NW 26 35 14 19 1007.6 1007.2 0.0
04/11:00am 16.3 10.9 9.5 64 3.6 NW 28 41 15 22 1007.7 1007.3 0.0
04/10:30am 15.3 10.6 9.2 67 3.2 WNW 24 39 13 21 1008.1 1007.7 0.0
04/10:00am 14.3 9.4 8.5 68 3.0 WNW 24 41 13 22 1008.6 1008.1 0.0
04/09:30am 14.2 9.8 9.0 71 2.7 NW 22 33 12 18 1008.4 1007.9 0.0
04/09:00am 13.4 8.5 8.5 72 2.5 NW 24 37 13 20 1008.7 1008.2 0.0
04/08:30am 12.8 8.6 8.1 73 2.4 NW 20 28 11 15 1008.6 1008.1 0.0
04/08:00am 11.6 7.9 8.1 79 1.7 NW 17 24 9 13 1008.5 1008.0 0.0
04/07:30am 10.9 6.7 7.6 80 1.6 NW 19 24 10 13 1008.4 1007.9 0.0
04/07:00am 11.2 6.9 7.1 76 2.0 NW 19 28 10 15 1008.4 1007.9 0.0
04/06:30am 11.1 5.8 7.0 76 2.0 WNW 24 32 13 17 1008.2 1007.8 0.0
04/06:00am 11.4 6.8 6.7 73 2.3 WNW 20 30 11 16 1008.6 1008.1 0.0
04/05:30am 11.5 6.8 6.2 70 2.5 WNW 20 28 11 15 1008.8 1008.3 0.0
04/05:00am 11.4 6.7 5.9 69 2.6 WNW 20 33 11 18 1008.8 1008.3 0.0
04/04:30am 11.8 6.2 5.4 65 3.0 WNW 24 39 13 21 1009.0 1008.6 0.0
04/04:00am 11.2 7.7 5.5 68 2.7 NW 13 20 7 11 1009.3 1008.9 0.0
04/03:30am 11.4 8.3 5.7 68 2.7 NW 11 15 6 8 1009.8 1009.4 0.0
04/03:00am 11.2 7.0 5.7 69 2.6 NW 17 24 9 13 1010.1 1009.7 0.0
04/02:30am 11.1 7.3 5.6 69 2.6 NW 15 20 8 11 1010.5 1010.1 0.0
04/02:00am 10.4 6.5 5.4 71 2.3 WNW 15 28 8 15 1010.9 1010.5 0.0
04/01:30am 10.9 6.3 5.4 69 2.6 WNW 19 24 10 13 1011.1 1010.7 0.0
04/01:00am 11.4 6.6 5.5 67 2.8 NW 20 30 11 16 1011.6 1011.2 0.0
04/12:30am 11.5 6.9 5.6 67 2.8 WNW 19 26 10 14 1012.0 1011.6 0.0
04/12:00am 11.4 7.1 5.3 66 2.9 WNW 17 24 9 13 1012.4 1012.0 0.0
 
Date/Time
EDT
Temp
°C
App
Temp
°C
Dew
Point
Rel
Hum
%
Delta-T
°C
Wind Press
QNH
hPa
Press
MSL
hPa
Rain
since 9 am
mm
Dir
 
Spd
km/h
Gust
km/h
Spd
kts
Gust
kts
03/11:30pm 11.0 7.7 4.5 64 3.0 NW 11 15 6 8 1012.8 1012.4 0.0
03/11:00pm 10.5 6.8 4.4 66 2.8 WNW 13 17 7 9 1012.7 1012.3 0.0
03/10:30pm 10.3 7.3 4.2 66 2.8 NW 9 17 5 9 1013.0 1012.6 0.0
03/10:00pm 10.4 8.9 3.2 61 3.2 CALM 0 2 0 1 1013.2 1012.8 0.0
03/09:30pm 10.7 8.5 3.5 61 3.2 WNW 4 9 2 5 1013.5 1013.1 0.0
03/09:00pm 11.4 8.7 3.7 59 3.5 WNW 7 15 4 8 1013.5 1013.1 0.0
03/08:30pm 11.7 8.6 3.5 57 3.7 W 9 13 5 7 1013.1 1012.7 0.0
03/08:00pm 12.6 8.7 3.3 53 4.2 W 13 19 7 10 1012.9 1012.5 0.0
03/07:30pm 14.6 9.9 3.1 46 5.3 W 17 26 9 14 1012.4 1012.0 0.0
03/07:00pm 15.7 10.4 3.2 43 5.8 WNW 20 30 11 16 1012.3 1011.9 0.0
03/06:30pm 16.7 11.3 2.7 39 6.5 WNW 20 30 11 16 1012.1 1011.7 0.0
03/06:00pm 17.4 11.3 2.6 37 6.9 W 24 32 13 17 1012.2 1011.8 0.0
03/05:30pm 18.1 12.4 2.8 36 7.2 W 22 37 12 20 1012.2 1011.8 0.0
03/05:00pm 18.0 12.1 1.9 34 7.4 W 22 35 12 19 1012.4 1012.0 0.0
03/04:30pm 19.0 13.9 3.2 35 7.5 W 19 32 10 17 1012.5 1012.1 0.0
03/04:00pm 19.0 13.7 2.8 34 7.6 W 20 32 11 17 1012.8 1012.4 0.0
03/03:30pm 19.5 15.0 4.0 36 7.5 W 17 30 9 16 1013.1 1012.7 0.0
03/03:00pm 17.8 12.5 2.9 37 7.0 WNW 20 33 11 18 1013.5 1013.1 0.0
03/02:30pm 19.0 13.4 3.2 35 7.5 W 22 32 12 17 1013.8 1013.4 0.0
03/02:00pm 18.4 13.2 3.5 37 7.1 WNW 20 32 11 17 1013.9 1013.5 0.0
03/01:30pm 16.5 12.3 3.9 43 5.9 WSW 15 28 8 15 1014.3 1013.9 0.0
03/01:00pm 17.1 12.6 4.1 42 6.2 W 17 24 9 13 1014.5 1014.1 0.0
03/12:30pm 16.0 11.1 4.1 45 5.6 WSW 19 32 10 17 1014.8 1014.5 0.0
03/12:00pm 16.7 12.2 4.1 43 6.0 W 17 26 9 14 1015.1 1014.8 0.0
03/11:30am 16.2 11.4 4.6 46 5.5 WSW 19 28 10 15 1015.4 1015.1 0.0
03/11:00am 16.4 11.0 4.4 45 5.7 WSW 22 33 12 18 1015.4 1015.1 0.0
03/10:30am 15.9 10.1 4.6 47 5.4 WSW 24 33 13 18 1015.3 1015.0 0.0
03/10:00am 15.6 11.0 5.5 51 4.9 W 19 28 10 15 1015.1 1014.8 0.0
03/09:30am 14.5 10.4 6.3 58 4.0 W 17 24 9 13 1014.9 1014.6 0.0
03/09:00am 13.6 10.1 7.2 65 3.2 W 15 20 8 11 1014.9 1014.6 0.0
03/08:30am 12.5 9.1 7.6 72 2.4 WNW 15 24 8 13 1014.5 1014.1 0.0
03/08:00am 9.4 7.5 7.7 89 0.8 NW 7 13 4 7 1014.2 1013.8 0.0
03/07:30am 8.3 5.5 6.8 90 0.7 NNW 11 13 6 7 1013.9 1013.5 0.0
03/07:00am 7.8 4.9 6.3 90 0.7 NNW 11 15 6 8 1013.6 1013.2 0.0
03/06:30am 8.1 5.2 6.4 89 0.8 NNW 11 17 6 9 1013.5 1013.1 0.0
03/06:00am 8.4 5.2 6.9 90 0.7 NNW 13 17 7 9 1013.2 1012.8 0.0
03/05:30am 8.0 5.1 6.6 91 0.7 NNW 11 13 6 7 1013.1 1012.7 0.0
03/05:00am 7.3 4.3 5.8 90 0.7 NNW 11 13 6 7 1013.0 1012.6 0.0
03/04:30am 7.2 4.1 5.7 90 0.7 NNW 11 13 6 7 1013.0 1012.6 0.0
03/04:00am 7.5 4.0 5.3 86 1.0 NNW 13 15 7 8 1012.9 1012.5 0.0
03/03:30am 8.5 5.8 5.8 83 1.2 NNW 9 13 5 7 1012.9 1012.5 0.0
03/03:00am 9.1 6.5 6.0 81 1.4 NW 9 11 5 6 1013.3 1012.9 0.0
03/02:30am 8.0 4.8 5.1 82 1.3 NW 11 13 6 7 1013.8 1013.4 0.0
03/02:00am 9.2 6.5 5.8 79 1.6 NW 9 11 5 6 1013.9 1013.5 0.0
03/01:30am 9.7 6.3 5.9 77 1.8 WNW 13 15 7 8 1014.1 1013.7 0.0
03/01:00am 10.5 6.7 5.9 73 2.2 WNW 15 22 8 12 1014.3 1013.9 0.0
03/12:30am 9.7 6.7 5.9 77 1.8 NW 11 15 6 8 1014.4 1014.0 0.0
03/12:00am 10.3 7.7 5.9 74 2.1 WNW 9 13 5 7 1014.7 1014.3 0.0
 
Date/Time
EDT
Temp
°C
App
Temp
°C
Dew
Point
Rel
Hum
%
Delta-T
°C
Wind Press
QNH
hPa
Press
MSL
hPa
Rain
since 9 am
mm
Dir
 
Spd
km/h
Gust
km/h
Spd
kts
Gust
kts
02/11:30pm 10.9 8.2 5.7 70 2.4 WNW 9 13 5 7 1014.7 1014.3 0.0
02/11:00pm 10.6 8.7 6.9 78 1.8 WNW 6 9 3 5 1015.2 1014.9 0.0
02/10:30pm 11.3 8.4 8.2 81 1.5 NW 13 20 7 11 1015.2 1014.9 0.0
02/10:00pm 11.6 9.2 8.6 82 1.5 NW 11 15 6 8 1015.1 1014.8 0.0
02/09:30pm 12.0 9.6 8.8 81 1.6 NW 11 15 6 8 1015.0 1014.7 0.0
02/09:00pm 11.5 9.9 8.7 83 1.4 NNW 7 15 4 8 1014.6 1014.2 0.0
02/08:30pm 11.9 10.4 8.6 80 1.7 NNW 6 9 3 5 1014.5 1014.1 0.0
02/08:00pm 12.8 11.4 8.9 77 2.0 NNW 6 9 3 5 1014.5 1014.1 0.0
02/07:30pm 13.1 11.1 8.8 75 2.2 NW 9 15 5 8 1014.8 1014.5 0.0
02/07:00pm 13.4 9.9 7.4 67 3.0 NNW 15 20 8 11 1014.1 1013.7 0.0
02/06:30pm 13.7 10.4 6.3 61 3.6 NNW 13 17 7 9 1014.4 1014.0 0.0
02/06:00pm 14.0 10.4 6.8 62 3.5 NNW 15 20 8 11 1013.7 1013.3 0.0
02/05:30pm 14.2 11.2 7.7 65 3.3 N 13 20 7 11 1014.1 1013.7 0.0
02/05:00pm 14.8 11.7 8.7 67 3.1 N 15 20 8 11 1014.2 1013.8 0.0
02/04:30pm 15.6 12.6 9.1 65 3.4 N 15 20 8 11 1014.1 1013.7 0.0
02/04:00pm 16.1 12.4 6.5 53 4.8 N 15 24 8 13 1014.5 1014.1 0.0
02/03:30pm 18.2 15.3 6.7 47 5.8 NNW 11 19 6 10 1014.8 1014.5 0.0
02/03:00pm 17.9 14.5 5.8 45 6.0 N 13 24 7 13 1015.1 1014.8 0.0
02/02:30pm 17.8 14.7 7.2 50 5.4 NNE 13 24 7 13 1015.3 1015.0 0.0
02/02:00pm 17.9 14.7 6.7 48 5.6 NNE 13 22 7 12 1016.0 1015.6 0.0
02/01:30pm 17.0 14.6 6.8 51 5.1 NE 9 22 5 12 1016.4 1016.0 0.0
02/01:00pm 17.1 14.9 8.0 55 4.7 NNE 9 17 5 9 1016.7 1016.3 0.0
02/12:30pm 16.2 12.9 8.2 59 4.1 NE 15 22 8 12 1016.8 1016.4 0.0
02/12:00pm 16.8 13.9 8.0 56 4.5 NE 13 22 7 12 1017.6 1017.2 0.0
02/11:30am 15.4 12.6 8.6 64 3.5 ENE 13 19 7 10 1017.9 1017.6 0.0
02/11:00am 14.8 12.8 8.7 67 3.1 NE 9 20 5 11 1018.4 1018.1 0.0
02/10:30am 14.9 13.6 9.3 69 2.9 NE 6 13 3 7 1018.5 1018.2 0.0
02/10:00am 14.2 11.9 9.0 71 2.7 ESE 11 17 6 9 1018.2 1017.9 0.0

Other Formats:

Comma delimited format used in spreadsheet applications
http://www.bom.gov.au/fwo/IDT60801/IDT60801.94955.axf

JavaScript Object Notation format (JSON) in row-major order
http://www.bom.gov.au/fwo/IDT60801/IDT60801.94955.json